Time;durP1;ratioP1;P1;durP2;ratioP2;P2;SDS_P1;SDS_P2;PMS_P1;PMS_P2;Temp;Humidity;BMP_temperature;BMP_pressure;BME280_temperature;BME280_humidity;BME280_pressure;Samples;Min_cycle;Max_cycle;Signal;HPM_P1;HPM_P2
2022/09/03 00:00:13;;;;;;;5.60;1.70;;;16.20;99.90;;;;;;4921671;28;88908;-33
2022/09/03 00:03:02;;;;;;;6.05;1.85;;;16.20;99.90;;;;;;4921869;28;89800;-30
2022/09/03 00:05:37;;;;;;;12.68;2.20;;;16.10;99.90;;;;;;4921382;28;89907;-30
2022/09/03 00:08:20;;;;;;;2.55;1.40;;;16.10;99.90;;;;;;4921406;28;90341;-33
2022/09/03 00:11:13;;;;;;;1.42;1.33;;;16.10;99.90;;;;;;4921707;28;90284;-29
2022/09/03 00:13:46;;;;;;;2.20;1.95;;;16.10;99.90;;;;;;4921244;28;89293;-33
2022/09/03 00:16:18;;;;;;;5.03;1.92;;;16.10;99.90;;;;;;4922025;28;89870;-37
2022/09/03 00:18:56;;;;;;;2.72;1.38;;;16.00;99.90;;;;;;4921773;28;90702;-34
2022/09/03 00:21:43;;;;;;;1.55;1.45;;;16.10;99.90;;;;;;4921785;28;89814;-29
2022/09/03 00:24:12;;;;;;;4.20;2.22;;;16.00;99.90;;;;;;4921348;28;91268;-30
2022/09/03 00:26:41;;;;;;;2.30;1.55;;;16.00;99.90;;;;;;4920796;28;89319;-32
2022/09/03 00:29:18;;;;;;;2.35;2.15;;;16.00;99.90;;;;;;4919443;28;89773;-32
2022/09/03 00:31:52;;;;;;;1.50;1.40;;;15.90;99.90;;;;;;4920518;28;89820;-33
2022/09/03 00:34:30;;;;;;;1.20;1.20;;;15.90;99.90;;;;;;5009951;22;89949;-33
2022/09/03 00:36:56;;;;;;;1.48;1.10;;;15.90;99.90;;;;;;5020341;27;89327;-31
2022/09/03 00:39:24;;;;;;;1.98;1.63;;;15.90;99.90;;;;;;5019353;27;90456;-31
2022/09/03 00:42:17;;;;;;;1.83;1.73;;;15.80;99.90;;;;;;5019682;27;89735;-35
2022/09/03 00:45:15;;;;;;;1.70;1.60;;;15.80;99.90;;;;;;5019291;28;89089;-33
2022/09/03 00:47:56;;;;;;;1.35;1.25;;;15.80;99.90;;;;;;5020074;28;89725;-31
2022/09/03 00:50:37;;;;;;;2.95;1.65;;;15.70;99.90;;;;;;5019645;28;90632;-34
2022/09/03 00:53:16;;;;;;;1.58;1.48;;;15.80;99.90;;;;;;5019697;27;90201;-36
2022/09/03 00:55:55;;;;;;;1.40;1.30;;;15.80;99.90;;;;;;5019854;27;89578;-32
2022/09/03 00:58:45;;;;;;;1.88;1.30;;;15.70;99.90;;;;;;5018489;27;89716;-35
2022/09/03 01:01:22;;;;;;;6.70;1.80;;;15.70;99.90;;;;;;5019067;28;90354;-35
2022/09/03 01:04:22;;;;;;;1.48;1.38;;;15.70;99.90;;;;;;5018715;27;89731;-36
2022/09/03 01:07:17;;;;;;;2.83;2.50;;;15.60;99.90;;;;;;5019535;28;90306;-32
2022/09/03 01:09:43;;;;;;;1.85;1.75;;;15.70;99.90;;;;;;5019836;27;88802;-33
2022/09/03 01:12:37;;;;;;;4.05;1.73;;;15.60;99.90;;;;;;5019464;27;91072;-30
2022/09/03 01:15:09;;;;;;;3.00;2.03;;;15.60;99.90;;;;;;5019136;28;89801;-31
2022/09/03 01:17:57;;;;;;;3.58;1.35;;;15.60;99.90;;;;;;5019235;27;89272;-31
2022/09/03 01:20:29;;;;;;;1.83;1.58;;;15.60;99.90;;;;;;5019557;27;88645;-34
2022/09/03 01:23:28;;;;;;;2.53;1.73;;;15.50;99.90;;;;;;5019281;27;90394;-30
2022/09/03 01:26:03;;;;;;;2.05;1.67;;;15.40;99.90;;;;;;5019056;27;90674;-31
2022/09/03 01:29:09;;;;;;;1.30;1.30;;;15.40;99.90;;;;;;5018547;27;89753;-34
2022/09/03 01:32:09;;;;;;;2.35;1.92;;;15.40;99.90;;;;;;5019045;28;89776;-34
2022/09/03 01:34:46;;;;;;;2.53;2.03;;;15.40;99.90;;;;;;5017877;27;90606;-32
2022/09/03 01:37:14;;;;;;;2.72;1.73;;;15.40;99.90;;;;;;5018493;28;89763;-35
2022/09/03 01:40:17;;;;;;;8.90;1.80;;;15.40;99.90;;;;;;5018561;27;90920;-30
2022/09/03 01:42:49;;;;;;;4.05;1.75;;;15.40;99.90;;;;;;5020380;27;89065;-35
2022/09/03 01:45:21;;;;;;;1.80;1.70;;;15.40;99.90;;;;;;5022210;28;90271;-36
2022/09/03 01:47:53;;;;;;;3.67;1.85;;;15.40;99.90;;;;;;5022437;28;89761;-36
2022/09/03 01:50:32;;;;;;;3.08;1.88;;;15.40;99.90;;;;;;5022206;27;89781;-33
2022/09/03 01:53:21;;;;;;;4.25;2.20;;;15.40;99.90;;;;;;5022369;27;88342;-30
2022/09/03 01:55:59;;;;;;;4.18;1.80;;;15.50;99.90;;;;;;5022719;27;89897;-34
2022/09/03 01:58:43;;;;;;;4.07;2.08;;;15.50;99.90;;;;;;5022022;28;90328;-30
2022/09/03 02:01:38;;;;;;;2.13;1.98;;;15.50;99.90;;;;;;5022292;27;89554;-31
2022/09/03 02:04:18;;;;;;;4.55;1.90;;;15.50;99.90;;;;;;5021852;27;89548;-31
2022/09/03 02:06:45;;;;;;;2.15;1.88;;;15.50;99.90;;;;;;5022556;27;90645;-31
2022/09/03 02:09:10;;;;;;;2.80;1.35;;;15.50;99.90;;;;;;5022406;28;89593;-30
2022/09/03 02:11:36;;;;;;;2.95;2.58;;;15.50;99.90;;;;;;5021710;27;89728;-32
2022/09/03 02:14:04;;;;;;;2.70;2.13;;;15.50;99.90;;;;;;5022511;27;88728;-34
2022/09/03 02:16:33;;;;;;;9.35;2.67;;;15.50;99.90;;;;;;5021646;28;90183;-31
2022/09/03 02:19:09;;;;;;;2.17;1.60;;;15.50;99.90;;;;;;5021701;27;90567;-33
2022/09/03 02:21:38;;;;;;;1.95;1.85;;;15.50;99.90;;;;;;5021625;27;90039;-33
2022/09/03 02:24:06;;;;;;;1.92;1.83;;;15.40;99.90;;;;;;5006858;27;88865;-30
2022/09/03 02:26:32;;;;;;;1.80;1.70;;;15.50;99.90;;;;;;5001450;28;90814;-37
2022/09/03 02:29:00;;;;;;;1.80;1.70;;;15.50;99.90;;;;;;5002237;28;89506;-32
2022/09/03 02:31:27;;;;;;;1.88;1.77;;;15.50;99.90;;;;;;5001589;28;89681;-32
2022/09/03 02:33:54;;;;;;;5.30;2.43;;;15.50;99.90;;;;;;5001260;28;88739;-33
2022/09/03 02:36:26;;;;;;;1.80;1.70;;;15.60;99.90;;;;;;5012700;28;89734;-31
2022/09/03 02:38:51;;;;;;;1.52;1.42;;;15.70;99.90;;;;;;5021563;27;89456;-31
2022/09/03 02:41:17;;;;;;;2.97;1.85;;;15.60;99.90;;;;;;5012973;27;87525;-29
2022/09/03 02:44:09;;;;;;;2.33;1.88;;;15.60;99.90;;;;;;5002630;28;90334;-30
2022/09/03 02:46:39;;;;;;;5.65;2.00;;;15.50;99.90;;;;;;5017305;27;90219;-32
2022/09/03 02:49:05;;;;;;;2.90;2.17;;;15.60;99.90;;;;;;5021849;27;88546;-31
2022/09/03 02:51:34;;;;;;;5.57;2.20;;;15.50;99.90;;;;;;5021423;27;89274;-35
2022/09/03 02:53:59;;;;;;;;;;;15.50;99.90;;;;;;4993684;27;89575;-30
2022/09/03 02:56:26;;;;;;;3.97;2.10;;;15.50;99.90;;;;;;5023717;28;90348;-35
2022/09/03 02:58:53;;;;;;;2.20;2.00;;;15.50;99.90;;;;;;5007750;27;89751;-31
2022/09/03 03:01:19;;;;;;;1.95;1.85;;;15.50;99.90;;;;;;5006108;28;90006;-35
2022/09/03 03:03:44;;;;;;;1.70;1.60;;;15.40;99.90;;;;;;5021888;27;88380;-34
2022/09/03 03:06:12;;;;;;;1.90;1.80;;;15.40;99.90;;;;;;5021128;27;90401;-35
2022/09/03 03:08:37;;;;;;;2.55;2.08;;;15.40;99.90;;;;;;5021365;27;90882;-32
2022/09/03 03:11:03;;;;;;;2.08;1.98;;;15.40;99.90;;;;;;5021095;27;90848;-36
2022/09/03 03:13:30;;;;;;;2.92;1.88;;;15.40;99.90;;;;;;5021166;27;89927;-32
2022/09/03 03:15:58;;;;;;;2.80;1.88;;;15.50;99.90;;;;;;5021680;27;90609;-36
2022/09/03 03:18:23;;;;;;;1.80;1.70;;;15.50;99.90;;;;;;5021125;27;89681;-35
2022/09/03 03:20:50;;;;;;;1.98;1.88;;;15.50;99.90;;;;;;5021234;28;88883;-34
2022/09/03 03:23:16;;;;;;;2.50;2.03;;;15.40;99.90;;;;;;5020972;27;89371;-36
2022/09/03 03:25:42;;;;;;;1.90;1.80;;;15.40;99.90;;;;;;5021234;27;92007;-31
2022/09/03 03:28:08;;;;;;;4.15;2.15;;;15.40;99.90;;;;;;5019898;27;90311;-30
2022/09/03 03:30:37;;;;;;;9.25;1.95;;;15.50;99.90;;;;;;5020997;27;89284;-30
2022/09/03 03:33:03;;;;;;;3.78;2.42;;;15.50;99.90;;;;;;5006333;27;88912;-32
2022/09/03 03:35:29;;;;;;;3.33;2.20;;;15.40;99.90;;;;;;5005948;28;88362;-33
2022/09/03 03:37:57;;;;;;;2.60;2.40;;;15.50;99.90;;;;;;5021163;28;89893;-33
2022/09/03 03:40:22;;;;;;;8.55;2.58;;;15.40;99.90;;;;;;5020949;27;89851;-31
2022/09/03 03:42:48;;;;;;;1.80;1.70;;;15.40;99.90;;;;;;5021379;27;89841;-30
2022/09/03 03:45:14;;;;;;;4.03;2.47;;;15.40;99.90;;;;;;5020525;27;90175;-34
2022/09/03 03:47:40;;;;;;;2.63;1.77;;;15.40;99.90;;;;;;5020600;27;90698;-30
2022/09/03 03:50:06;;;;;;;2.05;1.88;;;15.50;99.90;;;;;;5020552;28;89491;-32
2022/09/03 03:52:31;;;;;;;1.85;1.65;;;15.40;99.90;;;;;;5021162;27;87996;-32
2022/09/03 03:54:57;;;;;;;2.00;1.80;;;15.40;99.90;;;;;;5020477;27;91140;-32
2022/09/03 03:57:23;;;;;;;1.65;1.55;;;15.40;99.90;;;;;;5020137;28;90643;-31
2022/09/03 03:59:49;;;;;;;4.68;2.72;;;15.30;99.90;;;;;;5020527;28;90371;-31
2022/09/03 04:02:15;;;;;;;2.67;2.10;;;15.30;99.90;;;;;;5020265;27;89382;-37
2022/09/03 04:04:41;;;;;;;1.70;1.60;;;15.20;99.90;;;;;;5020668;27;90239;-30
2022/09/03 04:07:07;;;;;;;4.20;1.80;;;15.20;99.90;;;;;;5019724;28;90625;-32
2022/09/03 04:09:33;;;;;;;2.47;2.28;;;15.20;99.90;;;;;;5020335;27;89498;-34
2022/09/03 04:11:59;;;;;;;3.35;2.38;;;15.20;99.90;;;;;;5021076;27;87648;-32
2022/09/03 04:14:26;;;;;;;2.83;2.25;;;15.20;99.90;;;;;;5019582;27;90517;-30
2022/09/03 04:16:52;;;;;;;2.72;2.42;;;15.10;99.90;;;;;;5020057;28;90863;-34
2022/09/03 04:19:18;;;;;;;2.67;2.35;;;15.10;99.90;;;;;;5020357;27;90744;-31
2022/09/03 04:21:44;;;;;;;3.90;2.67;;;15.10;99.90;;;;;;5020034;27;89338;-34
2022/09/03 04:24:09;;;;;;;3.38;2.20;;;15.10;99.90;;;;;;5020713;27;90200;-33
2022/09/03 04:26:35;;;;;;;2.88;1.83;;;15.00;99.90;;;;;;5019495;28;90165;-33
2022/09/03 04:29:03;;;;;;;2.35;2.25;;;14.90;99.90;;;;;;5020310;27;88454;-29
2022/09/03 04:31:30;;;;;;;5.07;2.22;;;14.90;99.90;;;;;;5019562;27;89761;-30
2022/09/03 04:33:56;;;;;;;2.40;2.20;;;14.80;99.90;;;;;;5007590;28;90926;-30
2022/09/03 04:36:24;;;;;;;2.08;1.95;;;14.80;99.90;;;;;;5020282;27;89723;-36
2022/09/03 04:38:53;;;;;;;3.45;2.72;;;14.70;99.90;;;;;;5020759;28;89130;-30
2022/09/03 04:41:24;;;;;;;3.88;2.40;;;14.60;99.90;;;;;;5020453;27;89225;-31
2022/09/03 04:43:51;;;;;;;2.47;2.28;;;14.60;99.90;;;;;;5020511;27;90447;-36
2022/09/03 04:46:18;;;;;;;3.43;2.73;;;14.50;99.90;;;;;;5019796;28;90635;-33
2022/09/03 04:48:49;;;;;;;2.97;2.60;;;14.50;99.90;;;;;;5019542;27;90003;-33
2022/09/03 04:51:18;;;;;;;4.80;2.63;;;14.40;99.90;;;;;;5020257;28;88312;-33
2022/09/03 04:53:46;;;;;;;2.78;2.40;;;14.40;99.90;;;;;;5019699;27;90294;-31
2022/09/03 04:56:20;;;;;;;4.07;2.85;;;14.30;99.90;;;;;;5019157;27;89519;-31
2022/09/03 04:58:47;;;;;;;2.65;2.40;;;14.30;99.90;;;;;;5019192;28;89832;-34
2022/09/03 05:01:18;;;;;;;3.53;2.58;;;14.30;99.90;;;;;;5019726;27;89802;-31
2022/09/03 05:03:44;;;;;;;2.53;2.10;;;14.30;99.90;;;;;;5019324;28;90925;-31
2022/09/03 05:06:10;;;;;;;3.40;2.83;;;14.30;99.90;;;;;;5019128;28;89550;-33
2022/09/03 05:08:36;;;;;;;2.20;2.10;;;14.30;99.90;;;;;;5019103;27;90543;-34
2022/09/03 05:11:04;;;;;;;3.47;2.40;;;14.30;99.90;;;;;;5018801;27;90258;-31
2022/09/03 05:13:30;;;;;;;6.07;2.80;;;14.30;99.90;;;;;;5018450;28;90148;-32
2022/09/03 05:16:04;;;;;;;2.97;2.65;;;14.30;99.90;;;;;;5018919;27;89983;-36
2022/09/03 05:18:30;;;;;;;2.55;2.35;;;14.30;99.90;;;;;;5017931;27;91408;-32
2022/09/03 05:21:22;;;;;;;2.92;2.35;;;14.40;99.90;;;;;;5018862;27;89158;-32
2022/09/03 05:23:49;;;;;;;3.10;2.55;;;14.40;99.90;;;;;;5017801;27;90889;-30
2022/09/03 05:26:18;;;;;;;4.63;2.65;;;14.40;99.90;;;;;;5018943;27;89105;-32
2022/09/03 05:28:44;;;;;;;2.20;2.10;;;14.40;99.90;;;;;;5019405;27;89428;-32
2022/09/03 05:31:15;;;;;;;10.40;3.17;;;14.40;99.90;;;;;;5019210;28;88764;-29
2022/09/03 05:33:46;;;;;;;3.95;3.15;;;14.50;99.90;;;;;;5004711;27;90329;-33
2022/09/03 05:36:14;;;;;;;6.72;3.10;;;14.50;99.90;;;;;;5018594;28;91388;-32
2022/09/03 05:38:40;;;;;;;;;;;14.50;99.90;;;;;;5019417;28;90549;-30
2022/09/03 05:41:08;;;;;;;3.45;2.63;;;14.60;99.90;;;;;;5020175;28;88927;-31
2022/09/03 05:43:35;;;;;;;3.65;3.08;;;14.60;99.90;;;;;;5017892;27;90051;-33
2022/09/03 05:46:06;;;;;;;3.40;3.10;;;14.70;99.90;;;;;;5018812;27;88649;-35
2022/09/03 05:48:33;;;;;;;3.03;2.83;;;14.70;99.90;;;;;;5018184;27;89093;-34
2022/09/03 05:51:10;;;;;;;3.13;2.83;;;14.70;99.90;;;;;;5019259;27;90056;-32
2022/09/03 05:53:37;;;;;;;3.30;3.00;;;14.80;99.90;;;;;;5019042;27;90614;-32
2022/09/03 05:56:06;;;;;;;3.85;3.55;;;14.80;99.90;;;;;;5018471;28;89873;-34
2022/09/03 05:58:32;;;;;;;;;;;14.90;99.90;;;;;;5018768;27;89270;-32
2022/09/03 06:00:58;;;;;;;2.95;2.70;;;14.80;99.90;;;;;;5020379;28;90091;-30
2022/09/03 06:03:24;;;;;;;4.13;3.35;;;14.80;99.90;;;;;;5018203;27;89735;-30
2022/09/03 06:05:51;;;;;;;5.60;3.40;;;14.80;99.90;;;;;;5018451;27;89885;-30
2022/09/03 06:08:17;;;;;;;4.85;2.70;;;14.90;99.90;;;;;;5018347;27;90094;-30
2022/09/03 06:10:43;;;;;;;3.67;3.38;;;14.90;99.90;;;;;;5018818;27;89167;-36
2022/09/03 06:13:09;;;;;;;3.97;2.53;;;14.90;99.90;;;;;;5018659;27;90676;-36
2022/09/03 06:15:35;;;;;;;2.60;2.40;;;15.00;99.90;;;;;;5018907;27;90000;-32
2022/09/03 06:18:00;;;;;;;7.90;2.78;;;14.90;99.90;;;;;;5012880;28;89570;-31
2022/09/03 06:20:27;;;;;;;2.88;2.50;;;14.90;99.90;;;;;;5010671;28;89084;-34
2022/09/03 06:22:56;;;;;;;4.13;2.90;;;14.90;99.90;;;;;;5019352;27;90156;-31
2022/09/03 06:25:21;;;;;;;;;;;15.00;99.90;;;;;;5018330;28;92778;-32
2022/09/03 06:27:48;;;;;;;5.25;3.03;;;15.00;99.90;;;;;;5020080;28;89936;-34
2022/09/03 06:30:15;;;;;;;3.00;2.70;;;15.00;99.90;;;;;;5022306;28;89102;-32
2022/09/03 06:32:45;;;;;;;3.33;2.80;;;15.00;99.90;;;;;;5022228;28;90253;-31
2022/09/03 06:35:11;;;;;;;2.75;2.55;;;15.00;99.90;;;;;;5021988;27;90243;-31
2022/09/03 06:37:40;;;;;;;4.10;3.03;;;15.10;99.90;;;;;;5021861;28;88444;-33
2022/09/03 06:40:11;;;;;;;6.55;2.78;;;15.20;99.90;;;;;;5007757;27;91404;-30
2022/09/03 06:42:41;;;;;;;4.43;2.75;;;15.20;99.90;;;;;;5015526;28;90314;-31
2022/09/03 06:45:08;;;;;;;3.22;2.95;;;15.30;99.90;;;;;;4999874;28;89689;-31
2022/09/03 06:47:34;;;;;;;3.00;2.70;;;15.40;99.90;;;;;;5000903;28;90311;-32
2022/09/03 06:50:00;;;;;;;3.22;2.75;;;15.50;99.90;;;;;;4999305;28;91260;-32
2022/09/03 06:52:27;;;;;;;3.33;3.05;;;15.50;99.90;;;;;;5000588;28;89080;-31
2022/09/03 06:54:52;;;;;;;3.58;2.90;;;15.60;99.90;;;;;;5001619;28;89184;-33
2022/09/03 06:57:18;;;;;;;3.97;3.13;;;15.70;99.90;;;;;;4993631;28;89415;-35
2022/09/03 06:59:43;;;;;;;6.25;2.85;;;15.80;99.90;;;;;;5001074;28;89149;-30
2022/09/03 07:02:10;;;;;;;3.72;3.17;;;15.80;99.90;;;;;;5000061;28;91935;-31
2022/09/03 07:04:35;;;;;;;3.17;2.40;;;16.00;99.90;;;;;;4996105;28;89402;-31
2022/09/03 07:07:01;;;;;;;3.97;3.45;;;16.10;99.90;;;;;;4999731;28;89858;-31
2022/09/03 07:09:27;;;;;;;2.67;2.50;;;16.30;99.90;;;;;;5000321;28;87807;-31
2022/09/03 07:11:53;;;;;;;9.00;3.33;;;16.40;99.90;;;;;;5000535;28;89701;-35
2022/09/03 07:14:20;;;;;;;2.53;2.35;;;16.60;99.90;;;;;;5000135;28;90498;-31
2022/09/03 07:16:46;;;;;;;2.47;2.28;;;16.70;99.90;;;;;;4994810;28;90455;-31
2022/09/03 07:19:12;;;;;;;2.25;1.98;;;16.80;99.90;;;;;;4998516;28;89719;-36
2022/09/03 07:21:42;;;;;;;4.60;2.50;;;17.00;99.90;;;;;;4998378;28;92221;-35
2022/09/03 07:24:08;;;;;;;3.05;2.20;;;17.10;99.90;;;;;;4998271;28;90080;-32
2022/09/03 07:26:39;;;;;;;2.72;2.53;;;17.30;99.90;;;;;;5007066;28;89484;-32
2022/09/03 07:29:06;;;;;;;4.47;3.28;;;17.40;99.90;;;;;;4990090;27;89737;-29
2022/09/03 07:31:39;;;;;;;2.72;2.35;;;17.50;99.90;;;;;;5018320;27;90295;-36
2022/09/03 07:34:07;;;;;;;3.05;2.40;;;17.60;99.90;;;;;;5018474;27;89880;-30
2022/09/03 07:36:41;;;;;;;7.63;2.58;;;17.70;99.90;;;;;;4999187;27;90284;-30
2022/09/03 07:39:07;;;;;;;4.65;2.30;;;17.80;99.90;;;;;;4998323;28;89334;-35
2022/09/03 07:41:33;;;;;;;2.65;2.45;;;17.90;99.90;;;;;;4997499;28;90130;-34
2022/09/03 07:44:04;;;;;;;3.20;3.00;;;18.00;99.90;;;;;;4998448;28;90380;-36
2022/09/03 07:46:31;;;;;;;2.35;2.15;;;18.20;99.90;;;;;;4998777;28;89972;-35
2022/09/03 07:48:58;;;;;;;5.03;2.42;;;18.30;99.90;;;;;;4999099;28;89011;-31
2022/09/03 07:51:27;;;;;;;2.80;2.60;;;18.50;99.90;;;;;;4988841;28;90611;-33
2022/09/03 07:53:59;;;;;;;5.57;2.58;;;18.60;99.90;;;;;;4997893;28;90553;-32
2022/09/03 07:56:25;;;;;;;2.28;2.08;;;18.70;99.90;;;;;;4999254;28;89534;-34
2022/09/03 07:58:51;;;;;;;3.33;3.13;;;18.90;99.90;;;;;;4998628;28;88047;-33
2022/09/03 08:01:19;;;;;;;2.67;2.15;;;19.00;99.90;;;;;;4997886;28;90333;-34
2022/09/03 08:03:46;;;;;;;;;;;19.10;99.90;;;;;;4996979;28;90781;-33
2022/09/03 08:06:13;;;;;;;2.70;2.45;;;19.20;99.90;;;;;;4999308;28;90521;-33
2022/09/03 08:08:39;;;;;;;2.50;2.30;;;19.30;99.90;;;;;;4998268;28;88855;-34
2022/09/03 08:11:11;;;;;;;3.47;2.30;;;19.40;99.90;;;;;;4998380;28;90222;-31
2022/09/03 08:13:42;;;;;;;2.25;2.05;;;19.50;99.90;;;;;;4997796;28;91164;-35
2022/09/03 08:16:09;;;;;;;3.92;2.20;;;19.60;99.90;;;;;;4997783;28;90351;-31
2022/09/03 08:18:38;;;;;;;3.33;2.38;;;19.70;99.90;;;;;;4997313;28;88706;-35
2022/09/03 08:21:06;;;;;;;2.45;2.13;;;19.90;99.90;;;;;;4998155;28;90204;-35
2022/09/03 08:23:35;;;;;;;3.55;2.28;;;20.00;99.90;;;;;;4998312;28;89741;-35
2022/09/03 08:26:02;;;;;;;2.17;2.05;;;20.20;98.70;;;;;;4997969;28;90175;-31
2022/09/03 08:28:28;;;;;;;6.13;2.30;;;20.30;96.70;;;;;;4996392;28;90164;-34
2022/09/03 08:30:54;;;;;;;2.78;1.80;;;20.40;96.50;;;;;;4996744;28;90174;-33
2022/09/03 08:33:35;;;;;;;2.92;2.72;;;20.50;93.30;;;;;;5013277;28;90170;-31
2022/09/03 08:36:13;;;;;;;2.58;1.63;;;20.50;92.40;;;;;;5018601;27;89562;-33
2022/09/03 08:38:41;;;;;;;2.35;2.15;;;20.60;94.90;;;;;;5018174;28;89124;-32
2022/09/03 08:41:10;;;;;;;4.95;2.42;;;20.60;91.30;;;;;;5017318;27;90609;-32
2022/09/03 08:43:57;;;;;;;3.67;2.05;;;20.70;90.90;;;;;;5002728;27;89849;-34
2022/09/03 08:46:32;;;;;;;6.33;2.50;;;20.90;89.50;;;;;;4989300;28;89383;-35
2022/09/03 08:48:59;;;;;;;2.33;2.15;;;21.00;92.50;;;;;;4997381;28;89490;-34
2022/09/03 08:51:28;;;;;;;2.42;1.90;;;21.00;87.40;;;;;;4997228;28;90089;-32
2022/09/03 08:53:56;;;;;;;1.90;1.80;;;21.10;88.20;;;;;;4997132;28;89837;-33
2022/09/03 08:56:28;;;;;;;2.53;2.33;;;21.20;81.10;;;;;;4986785;28;90314;-34
2022/09/03 08:58:54;;;;;;;2.53;1.80;;;21.20;84.40;;;;;;4998039;28;89994;-32
2022/09/03 09:01:49;;;;;;;2.80;1.83;;;21.30;84.80;;;;;;4996879;28;90281;-31
2022/09/03 09:04:54;;;;;;;3.10;2.33;;;21.40;89.60;;;;;;4996657;28;89977;-33
2022/09/03 09:07:30;;;;;;;4.00;2.25;;;21.50;81.70;;;;;;4974921;28;89762;-31
2022/09/03 09:10:18;;;;;;;1.98;1.88;;;21.60;78.40;;;;;;4997370;28;90503;-32
2022/09/03 09:13:07;;;;;;;2.50;2.30;;;21.60;77.10;;;;;;4997461;28;90535;-31
2022/09/03 09:15:53;;;;;;;2.42;1.60;;;21.70;78.60;;;;;;4997027;28;89650;-33
2022/09/03 09:18:43;;;;;;;1.92;1.75;;;21.80;75.70;;;;;;4995825;28;89483;-34
2022/09/03 09:21:23;;;;;;;3.42;1.98;;;21.80;75.40;;;;;;4995141;28;88734;-32
2022/09/03 09:23:50;;;;;;;12.60;2.70;;;21.90;75.40;;;;;;4987621;28;88831;-35
2022/09/03 09:26:18;;;;;;;2.47;1.93;;;22.00;69.30;;;;;;4996628;28;89362;-31
2022/09/03 09:28:58;;;;;;;2.55;1.63;;;22.00;71.00;;;;;;4995747;28;88833;-34
2022/09/03 09:31:24;;;;;;;3.30;2.00;;;22.10;69.40;;;;;;4994063;28;90012;-31
2022/09/03 09:33:51;;;;;;;2.88;1.42;;;22.10;69.30;;;;;;5007804;27;90481;-32
2022/09/03 09:36:18;;;;;;;1.70;1.60;;;22.20;67.50;;;;;;5010284;27;88705;-32
2022/09/03 09:38:46;;;;;;;3.60;2.38;;;22.30;70.20;;;;;;4996699;28;89473;-32
2022/09/03 09:41:14;;;;;;;6.50;2.33;;;22.50;70.40;;;;;;4996206;28;90030;-37
2022/09/03 09:43:40;;;;;;;;;;;22.70;67.00;;;;;;4997291;28;91041;-32
2022/09/03 09:46:19;;;;;;;2.72;1.85;;;22.70;65.60;;;;;;4997568;28;92128;-34
2022/09/03 09:48:56;;;;;;;1.77;1.67;;;22.80;65.40;;;;;;4996727;28;91324;-33
2022/09/03 09:51:24;;;;;;;5.07;1.83;;;22.90;64.50;;;;;;4996894;28;88375;-30
2022/09/03 09:54:18;;;;;;;5.93;1.90;;;22.90;64.70;;;;;;5006052;28;91711;-31
2022/09/03 09:56:45;;;;;;;2.20;2.00;;;23.00;63.40;;;;;;5000962;28;89200;-31
2022/09/03 09:59:13;;;;;;;4.75;1.85;;;23.10;63.20;;;;;;5015582;28;88780;-34
2022/09/03 10:01:41;;;;;;;2.50;1.80;;;23.10;62.30;;;;;;5016812;27;89949;-31
2022/09/03 10:04:08;;;;;;;;;;;23.40;63.00;;;;;;5019614;28;90309;-33
2022/09/03 10:06:53;;;;;;;2.00;1.77;;;23.50;62.50;;;;;;5021998;27;89915;-34
2022/09/03 10:09:39;;;;;;;1.90;1.80;;;23.70;61.50;;;;;;5020122;27;90750;-32
2022/09/03 10:12:24;;;;;;;11.77;1.98;;;23.90;59.40;;;;;;5019491;27;90517;-31
2022/09/03 10:15:11;;;;;;;4.97;1.88;;;23.80;59.10;;;;;;5020598;27;90570;-35
2022/09/03 10:17:56;;;;;;;1.85;1.75;;;23.90;59.90;;;;;;5020145;27;89883;-35
2022/09/03 10:20:36;;;;;;;2.67;1.77;;;24.00;57.70;;;;;;4999049;28;90653;-33
2022/09/03 10:23:08;;;;;;;2.03;1.90;;;24.00;57.90;;;;;;4998651;28;91448;-32
2022/09/03 10:25:41;;;;;;;1.67;1.58;;;24.00;58.80;;;;;;5000331;28;90343;-33
2022/09/03 10:28:09;;;;;;;7.05;1.88;;;24.00;57.20;;;;;;4999929;28;88953;-31
2022/09/03 10:30:51;;;;;;;8.32;1.98;;;24.10;58.00;;;;;;4999361;28;89067;-33
2022/09/03 10:33:25;;;;;;;3.72;1.77;;;24.10;57.70;;;;;;5014322;28;87531;-35
2022/09/03 10:36:09;;;;;;;1.77;1.67;;;24.10;55.70;;;;;;5020700;27;90102;-31
2022/09/03 10:38:36;;;;;;;2.50;2.00;;;24.10;57.00;;;;;;5018467;27;90180;-33
2022/09/03 10:41:11;;;;;;;2.40;1.70;;;24.20;55.60;;;;;;5019646;27;90300;-36
2022/09/03 10:43:50;;;;;;;1.65;1.55;;;24.20;55.70;;;;;;5020091;27;89197;-33
2022/09/03 10:46:25;;;;;;;2.58;1.80;;;24.10;55.40;;;;;;5020262;28;91184;-33
2022/09/03 10:49:30;;;;;;;2.25;2.15;;;24.10;54.80;;;;;;5019120;27;89095;-31
2022/09/03 10:52:03;;;;;;;1.50;1.40;;;24.20;55.30;;;;;;5000307;27;89555;-36
2022/09/03 10:54:37;;;;;;;3.38;1.80;;;24.20;55.40;;;;;;4996031;28;88759;-32
2022/09/03 10:57:31;;;;;;;1.90;1.75;;;24.30;54.10;;;;;;4998555;28;90378;-34
2022/09/03 11:00:11;;;;;;;2.95;1.88;;;24.40;52.30;;;;;;4998678;28;89755;-34
2022/09/03 11:03:02;;;;;;;1.65;1.48;;;24.20;53.80;;;;;;4999971;28;90110;-33
2022/09/03 11:05:38;;;;;;;6.28;1.95;;;24.30;53.80;;;;;;4998411;28;88753;-34
2022/09/03 11:08:22;;;;;;;4.25;1.92;;;24.30;54.10;;;;;;4999457;28;91158;-33
2022/09/03 11:10:53;;;;;;;7.18;2.63;;;24.40;53.70;;;;;;4998850;28;90087;-33
2022/09/03 11:13:28;;;;;;;2.17;1.75;;;24.40;52.70;;;;;;4998928;28;91078;-34
2022/09/03 11:16:08;;;;;;;4.65;1.60;;;24.40;52.70;;;;;;4998664;28;88801;-33
2022/09/03 11:18:43;;;;;;;2.35;1.90;;;24.40;53.50;;;;;;4998485;28;89640;-35
2022/09/03 11:21:12;;;;;;;4.05;1.88;;;24.50;53.30;;;;;;4996553;28;90577;-31
2022/09/03 11:23:46;;;;;;;3.90;1.85;;;24.70;52.50;;;;;;4998888;28;91055;-33
2022/09/03 11:26:17;;;;;;;3.25;2.10;;;24.60;51.80;;;;;;4999276;28;90230;-32
2022/09/03 11:29:15;;;;;;;2.03;1.88;;;24.50;51.70;;;;;;4998864;28;89366;-34
2022/09/03 11:32:02;;;;;;;1.80;1.70;;;24.50;51.70;;;;;;4982640;28;89773;-31
2022/09/03 11:34:43;;;;;;;4.13;2.10;;;24.40;52.00;;;;;;5008078;28;90985;-35
2022/09/03 11:37:25;;;;;;;2.10;1.90;;;24.50;51.50;;;;;;5019365;27;88610;-34
2022/09/03 11:40:12;;;;;;;8.73;1.80;;;24.50;52.30;;;;;;5018972;27;90294;-36
2022/09/03 11:42:40;;;;;;;2.00;1.73;;;24.60;51.80;;;;;;5007654;28;91173;-34
2022/09/03 11:45:31;;;;;;;2.95;1.80;;;24.70;51.20;;;;;;5004463;28;91280;-33
2022/09/03 11:47:57;;;;;;;4.47;1.70;;;24.70;51.20;;;;;;5018485;27;88729;-35
2022/09/03 11:50:32;;;;;;;3.30;2.25;;;24.70;51.70;;;;;;5019169;27;90397;-36
2022/09/03 11:53:09;;;;;;;3.70;1.75;;;24.70;51.90;;;;;;5019241;27;89621;-32
2022/09/03 11:56:15;;;;;;;4.75;1.80;;;24.70;52.10;;;;;;5014787;28;91366;-35
2022/09/03 11:58:42;;;;;;;2.47;1.77;;;24.70;51.40;;;;;;4997571;28;89587;-35
2022/09/03 12:01:18;;;;;;;3.53;2.00;;;24.70;50.20;;;;;;4997994;28;89457;-34
2022/09/03 12:03:53;;;;;;;1.77;1.67;;;24.70;49.90;;;;;;4998406;28;90039;-33
2022/09/03 12:06:31;;;;;;;2.45;1.52;;;24.60;50.50;;;;;;4997646;28;89504;-35
2022/09/03 12:09:34;;;;;;;2.47;2.28;;;24.70;50.80;;;;;;4998324;28;89312;-33
2022/09/03 12:12:02;;;;;;;1.70;1.52;;;24.80;49.50;;;;;;4997996;28;90429;-34
2022/09/03 12:14:50;;;;;;;4.97;1.95;;;24.70;50.00;;;;;;4988512;28;89902;-36
2022/09/03 12:17:37;;;;;;;3.00;2.10;;;24.70;49.70;;;;;;4997779;28;91334;-36
2022/09/03 12:20:12;;;;;;;2.22;2.10;;;24.70;50.50;;;;;;4998359;28;88315;-34
2022/09/03 12:22:38;;;;;;;5.25;2.38;;;24.70;50.00;;;;;;4998159;28;90423;-37
2022/09/03 12:25:10;;;;;;;1.52;1.42;;;24.80;51.30;;;;;;4997562;28;90922;-33
2022/09/03 12:27:36;;;;;;;1.80;1.70;;;24.90;50.70;;;;;;4997315;28;90405;-34
2022/09/03 12:30:04;;;;;;;3.55;1.63;;;25.00;49.60;;;;;;4998494;28;89560;-33
2022/09/03 12:32:35;;;;;;;1.73;1.63;;;24.90;49.60;;;;;;5006960;28;90756;-32
2022/09/03 12:35:20;;;;;;;2.85;1.73;;;24.90;49.20;;;;;;5041013;22;89782;-34
2022/09/03 12:37:45;;;;;;;2.10;2.00;;;24.90;49.30;;;;;;5017841;27;89694;-32
2022/09/03 12:40:22;;;;;;;3.40;1.95;;;24.90;49.70;;;;;;5017659;27;88357;-37
2022/09/03 12:42:49;;;;;;;1.80;1.50;;;25.00;49.40;;;;;;5018328;28;91923;-34
2022/09/03 12:45:19;;;;;;;1.88;1.77;;;25.00;49.80;;;;;;5016847;27;90231;-33
2022/09/03 12:47:45;;;;;;;2.35;1.75;;;25.10;49.90;;;;;;5017460;27;89479;-34
2022/09/03 12:50:22;;;;;;;1.42;1.33;;;25.10;48.50;;;;;;5014401;28;89942;-32
2022/09/03 12:52:52;;;;;;;2.00;1.90;;;25.10;50.30;;;;;;4997531;28;90123;-34
2022/09/03 12:55:32;;;;;;;2.97;1.70;;;25.10;50.40;;;;;;4996420;28;89581;-32
2022/09/03 12:57:58;;;;;;;1.83;1.67;;;25.10;48.70;;;;;;4997072;28;90146;-34
2022/09/03 13:00:24;;;;;;;1.77;1.67;;;25.00;48.90;;;;;;4997098;28;88393;-36
2022/09/03 13:02:52;;;;;;;1.90;1.58;;;25.00;49.60;;;;;;4997177;28;90185;-35
2022/09/03 13:05:32;;;;;;;4.65;1.92;;;25.00;49.60;;;;;;4995871;28;89188;-30
2022/09/03 13:08:02;;;;;;;8.43;2.20;;;25.00;49.10;;;;;;4998368;28;89548;-33
2022/09/03 13:10:30;;;;;;;2.10;1.90;;;25.00;48.90;;;;;;4997844;28;88955;-35
2022/09/03 13:13:22;;;;;;;5.55;2.20;;;24.90;50.30;;;;;;4997622;28;90060;-36
2022/09/03 13:16:10;;;;;;;2.08;1.80;;;25.00;50.40;;;;;;4996030;28;89829;-33